Time;durP1;ratioP1;P1;durP2;ratioP2;P2;SDS_P1;SDS_P2;PMS_P1;PMS_P2;Temp;Humidity;BMP_temperature;BMP_pressure;BME280_temperature;BME280_humidity;BME280_pressure;Samples;Min_cycle;Max_cycle;Signal;HPM_P1;HPM_P2
2023/06/06 00:02:21;;;;;;;8.95;5.38;;;;;;;-146.27;79.39;82886.41;5030304;28;20068;-68
2023/06/06 00:04:49;;;;;;;9.88;5.07;;;;;;;-146.27;79.14;82912.53;5029705;28;20502;-68
2023/06/06 00:07:17;;;;;;;9.52;5.15;;;;;;;-146.27;78.71;82886.41;5030947;28;20104;-68
2023/06/06 00:09:43;;;;;;;7.05;5.15;;;;;;;-146.27;78.71;82888.44;5025863;28;20057;-68
2023/06/06 00:12:12;;;;;;;8.43;5.40;;;;;;;-146.27;78.84;82882.41;5030936;28;20101;-68
2023/06/06 00:14:38;;;;;;;11.55;5.40;;;;;;;-146.27;79.32;82902.50;5030618;28;20026;-68
2023/06/06 00:17:03;;;;;;;9.52;5.75;;;;;;;-146.27;78.96;82902.50;5031130;28;20433;-68
2023/06/06 00:19:29;;;;;;;8.55;5.30;;;;;;;-146.27;79.35;82902.50;5030731;28;20151;-67
2023/06/06 00:21:54;;;;;;;9.88;5.40;;;;;;;-146.27;79.58;82904.50;5030538;28;20021;-68
2023/06/06 00:24:20;;;;;;;10.02;5.75;;;;;;;-146.27;79.03;82904.50;5031197;28;20106;-68
2023/06/06 00:26:45;;;;;;;11.45;5.85;;;;;;;-146.27;79.21;82934.63;5030186;28;20076;-68
2023/06/06 00:29:11;;;;;;;12.07;5.53;;;;;;;-146.27;79.35;82900.47;5030887;28;20025;-68
2023/06/06 00:31:36;;;;;;;10.27;5.88;;;;;;;-146.27;79.62;82936.66;5030441;28;20097;-68
2023/06/06 00:34:01;;;;;;;11.93;5.57;;;;;;;-146.27;79.25;82914.53;5029910;28;20029;-68
2023/06/06 00:36:27;;;;;;;8.93;5.25;;;;;;;-146.27;79.67;82918.56;5026633;28;20104;-67
2023/06/06 00:38:52;;;;;;;8.80;6.07;;;;;;;-146.27;78.96;82894.47;5030457;28;20440;-67
2023/06/06 00:41:17;;;;;;;10.75;5.50;;;;;;;-146.27;79.34;82942.66;5030723;28;20061;-67
2023/06/06 00:43:45;;;;;;;11.10;5.47;;;;;;;-146.27;79.72;82886.41;5030155;28;20495;-67
2023/06/06 00:46:13;;;;;;;10.05;5.47;;;;;;;-146.27;79.53;82900.47;5030981;28;20075;-68
2023/06/06 00:48:38;;;;;;;11.85;5.93;;;;;;;-146.27;80.65;82950.72;5029832;28;20071;-68
2023/06/06 00:51:05;;;;;;;14.15;5.15;;;;;;;-146.27;79.27;82946.69;5030111;28;20021;-69
2023/06/06 00:53:30;;;;;;;12.73;6.13;;;;;;;-146.27;80.03;82922.59;5030507;28;20022;-68
2023/06/06 00:55:57;;;;;;;11.82;5.32;;;;;;;-146.27;80.51;82886.41;5028663;28;20039;-68
2023/06/06 00:58:23;;;;;;;11.65;5.57;;;;;;;-146.27;80.19;82932.63;5023222;28;20037;-68
2023/06/06 01:00:49;;;;;;;10.77;5.55;;;;;;;-146.27;80.02;82958.75;5022928;28;20056;-68
2023/06/06 01:03:14;;;;;;;12.48;5.30;;;;;;;-146.27;79.63;82974.81;5028812;28;20083;-68
2023/06/06 01:05:40;;;;;;;10.45;5.82;;;;;;;-146.27;80.18;82988.88;5028744;28;22002;-69
2023/06/06 01:08:07;;;;;;;13.85;5.18;;;;;;;-146.27;80.43;82954.72;5023827;28;20494;-67
2023/06/06 01:10:36;;;;;;;9.07;5.75;;;;;;;-146.27;79.68;82968.78;5026384;28;20103;-68
2023/06/06 01:13:21;;;;;;;10.55;5.93;;;;;;;-146.27;80.15;82982.84;5024023;28;20383;-68
2023/06/06 01:16:02;;;;;;;10.38;5.85;;;;;;;-146.27;80.59;82984.88;5011854;28;20069;-68
2023/06/06 01:18:29;;;;;;;15.07;5.45;;;;;;;-146.27;80.22;82970.81;5027725;28;20409;-69
2023/06/06 01:20:55;;;;;;;12.00;5.60;;;;;;;-146.27;81.12;82988.88;5031411;28;20029;-68
2023/06/06 01:23:21;;;;;;;12.20;5.80;;;;;;;-146.27;81.30;83002.94;5030013;28;20039;-67
2023/06/06 01:25:47;;;;;;;11.43;6.10;;;;;;;-146.27;81.51;83010.97;5031391;28;20025;-67
2023/06/06 01:28:15;;;;;;;9.10;5.57;;;;;;;-146.27;81.54;83019.03;5028821;28;20029;-68
2023/06/06 01:30:42;;;;;;;14.07;5.30;;;;;;;-146.27;81.27;83023.03;5027761;28;20029;-68
2023/06/06 01:33:31;;;;;;;10.93;5.93;;;;;;;-146.27;81.37;83033.09;5030262;28;20052;-68
2023/06/06 01:36:26;;;;;;;11.77;5.25;;;;;;;-146.27;82.01;83015.00;5030659;28;20029;-67
2023/06/06 01:38:59;;;;;;;10.43;5.20;;;;;;;-146.27;81.44;82994.91;5028181;28;20033;-68
2023/06/06 01:41:28;;;;;;;11.85;5.60;;;;;;;-146.27;81.80;83004.94;5031102;28;20018;-68
2023/06/06 01:43:57;;;;;;;11.23;5.60;;;;;;;-146.27;82.20;83029.06;5017486;28;20032;-68
2023/06/06 01:46:25;;;;;;;10.60;5.30;;;;;;;-146.27;81.86;83010.97;5020452;28;20101;-68
2023/06/06 01:48:53;;;;;;;12.02;5.30;;;;;;;-146.27;82.72;83021.03;5029349;28;20029;-68
2023/06/06 01:51:18;;;;;;;10.07;5.90;;;;;;;-146.27;82.10;83067.25;5030797;28;20111;-68
2023/06/06 01:53:44;;;;;;;11.73;5.45;;;;;;;-146.27;82.55;83027.06;5030115;28;20056;-68
2023/06/06 01:56:13;;;;;;;13.75;5.47;;;;;;;-146.27;82.79;83083.31;5030011;28;20111;-68
2023/06/06 01:58:40;;;;;;;9.07;5.82;;;;;;;-146.27;82.53;83039.09;5028639;28;20120;-68
2023/06/06 02:01:06;;;;;;;11.68;5.43;;;;;;;-146.27;83.09;83063.22;5029020;28;20029;-68
2023/06/06 02:03:32;;;;;;;11.10;5.00;;;;;;;-146.27;82.89;83019.03;5029316;28;20477;-68
2023/06/06 02:05:57;;;;;;;14.80;5.50;;;;;;;-146.27;83.75;83041.13;5029158;28;20384;-68
2023/06/06 02:08:23;;;;;;;11.13;6.00;;;;;;;-146.27;82.34;82996.91;5028119;28;20034;-68
2023/06/06 02:10:49;;;;;;;10.68;5.43;;;;;;;-146.27;82.64;83051.16;5010045;28;20042;-67
2023/06/06 02:13:15;;;;;;;10.98;5.53;;;;;;;-146.27;82.70;83059.19;5023257;28;20041;-67
2023/06/06 02:15:41;;;;;;;10.15;5.60;;;;;;;-146.27;83.58;83047.16;5029147;28;20044;-67
2023/06/06 02:18:07;;;;;;;10.05;5.65;;;;;;;-146.27;83.53;83055.19;5029048;28;20428;-67
2023/06/06 02:20:32;;;;;;;12.98;6.03;;;;;;;-146.27;83.97;83065.22;5030043;28;20029;-67
2023/06/06 02:22:57;;;;;;;12.20;5.47;;;;;;;-146.27;84.37;83087.31;5029140;28;20079;-68
2023/06/06 02:25:24;;;;;;;12.52;6.22;;;;;;;-146.27;84.26;83077.28;5028583;28;20044;-69
2023/06/06 02:27:50;;;;;;;13.32;6.03;;;;;;;-146.27;83.61;83083.31;5028643;28;20053;-68
2023/06/06 02:30:16;;;;;;;8.43;5.63;;;;;;;-146.27;83.50;83079.28;5029709;28;20551;-68
2023/06/06 02:32:41;;;;;;;12.05;5.20;;;;;;;-146.27;84.31;83023.03;5028626;28;20017;-68
2023/06/06 02:35:07;;;;;;;12.40;6.10;;;;;;;-146.27;83.91;83081.31;5030256;28;20041;-68
2023/06/06 02:37:33;;;;;;;8.95;5.90;;;;;;;-146.27;84.58;83067.25;5029024;28;20064;-68
2023/06/06 02:40:05;;;;;;;12.43;5.00;;;;;;;-146.27;84.37;83053.16;5029534;28;20042;-68
2023/06/06 02:42:31;;;;;;;14.38;6.28;;;;;;;-146.27;84.15;83043.13;5028415;28;20060;-68
2023/06/06 02:44:56;;;;;;;11.13;5.70;;;;;;;-146.27;84.07;83083.31;5029133;28;20049;-68
2023/06/06 02:47:22;;;;;;;10.20;5.35;;;;;;;-146.27;83.88;83049.16;5022999;28;20025;-69
2023/06/06 02:49:47;;;;;;;8.50;5.55;;;;;;;-146.27;84.74;83055.19;5022853;28;20155;-69
2023/06/06 02:52:13;;;;;;;8.68;5.35;;;;;;;-146.27;84.22;83083.31;5032870;28;20049;-69
2023/06/06 02:54:40;;;;;;;11.63;6.03;;;;;;;-146.27;84.25;83055.19;5030462;28;20515;-71
2023/06/06 02:57:05;;;;;;;11.75;5.47;;;;;;;-146.27;84.58;83047.16;5032951;28;20040;-69
2023/06/06 02:59:31;;;;;;;12.30;5.22;;;;;;;-146.27;83.91;83025.03;5033012;28;20096;-67
2023/06/06 03:01:56;;;;;;;12.85;5.65;;;;;;;-146.27;83.99;83069.25;5031817;28;20050;-68
2023/06/06 03:04:22;;;;;;;10.57;5.05;;;;;;;-146.27;84.50;83075.28;5032953;28;20445;-68
2023/06/06 03:06:48;;;;;;;10.13;6.22;;;;;;;-146.27;84.08;83071.25;5034822;28;20480;-69
2023/06/06 03:09:13;;;;;;;11.45;5.15;;;;;;;-146.27;84.18;83083.31;5044984;28;20066;-70
2023/06/06 03:11:39;;;;;;;12.57;5.78;;;;;;;-146.27;84.69;83006.97;5031997;28;20473;-70
2023/06/06 03:14:04;;;;;;;8.60;5.65;;;;;;;-146.27;84.34;83033.09;5031804;28;20674;-71
2023/06/06 03:16:30;;;;;;;11.32;6.22;;;;;;;-146.27;84.11;83071.25;5032047;28;20503;-70
2023/06/06 03:18:56;;;;;;;12.40;5.55;;;;;;;-146.27;84.68;83065.22;5031940;28;20028;-70
2023/06/06 03:21:21;;;;;;;16.00;5.68;;;;;;;-146.27;84.50;83053.16;5031778;28;20021;-70
2023/06/06 03:23:48;;;;;;;9.45;5.80;;;;;;;-146.27;84.04;83027.06;5031330;28;20119;-70
2023/06/06 03:26:14;;;;;;;13.32;6.18;;;;;;;-146.27;84.28;83063.22;5030559;28;20029;-70
2023/06/06 03:28:40;;;;;;;13.82;5.68;;;;;;;-146.27;84.83;83027.06;5030484;28;20087;-70
2023/06/06 03:31:06;;;;;;;10.70;5.30;;;;;;;-146.27;84.40;83029.06;5031423;28;20025;-70
2023/06/06 03:33:32;;;;;;;12.07;5.50;;;;;;;-146.27;83.94;83039.09;5032252;28;20033;-70
2023/06/06 03:35:58;;;;;;;10.35;5.78;;;;;;;-146.27;83.82;83023.03;5031600;28;20103;-70
2023/06/06 03:38:24;;;;;;;9.68;5.57;;;;;;;-146.27;84.03;83013.00;5031191;28;20037;-70
2023/06/06 03:40:49;;;;;;;10.85;4.97;;;;;;;-146.27;84.47;83008.97;5032065;28;20091;-70
2023/06/06 03:43:15;;;;;;;11.77;5.05;;;;;;;-146.27;84.07;83023.03;5030792;28;20029;-70
2023/06/06 03:45:40;;;;;;;10.25;5.07;;;;;;;-146.27;84.50;82998.94;5031717;28;20025;-70
2023/06/06 03:48:06;;;;;;;12.68;4.88;;;;;;;-146.27;84.34;83006.97;5031448;28;20051;-71
2023/06/06 03:50:32;;;;;;;15.90;5.97;;;;;;;-146.27;84.59;82954.72;5031853;28;20033;-71
2023/06/06 03:52:58;;;;;;;13.20;5.38;;;;;;;-146.27;83.99;82974.81;5030405;28;20032;-70
2023/06/06 03:55:23;;;;;;;22.05;5.55;;;;;;;-146.27;84.07;83013.00;5013848;28;20485;-71
2023/06/06 03:57:50;;;;;;;13.10;4.68;;;;;;;-146.27;83.78;83000.94;5030491;28;20036;-71
2023/06/06 04:00:15;;;;;;;13.20;5.40;;;;;;;-146.27;83.30;82986.88;5051800;28;20438;-71
2023/06/06 04:02:41;;;;;;;15.10;5.38;;;;;;;-146.27;83.12;82950.72;5047499;28;20105;-70
2023/06/06 04:05:08;;;;;;;12.20;5.47;;;;;;;-146.27;83.29;83035.09;5030629;28;20060;-70
2023/06/06 04:07:34;;;;;;;13.90;5.30;;;;;;;-146.27;83.47;82976.81;5013353;28;20040;-70
2023/06/06 04:10:00;;;;;;;16.33;5.55;;;;;;;-146.27;83.65;82984.88;5011942;28;20401;-71
2023/06/06 04:12:25;;;;;;;13.35;5.72;;;;;;;-146.27;83.28;82956.75;5014763;28;20079;-70
2023/06/06 04:14:51;;;;;;;12.38;5.57;;;;;;;-146.27;83.45;82946.69;5032183;28;20498;-70
2023/06/06 04:17:21;;;;;;;13.95;4.78;;;;;;;-146.27;83.39;82990.88;5031405;28;20029;-70
2023/06/06 04:19:47;;;;;;;17.10;5.32;;;;;;;-146.27;83.24;83043.13;5032088;28;20033;-70
2023/06/06 04:22:14;;;;;;;12.60;5.47;;;;;;;-146.27;83.58;83031.06;5030748;28;20853;-70
2023/06/06 04:24:39;;;;;;;15.93;6.43;;;;;;;-146.27;83.53;83015.00;5030964;28;20029;-70
2023/06/06 04:27:05;;;;;;;14.10;5.40;;;;;;;-146.27;83.38;82990.88;5030976;28;20029;-71
2023/06/06 04:29:33;;;;;;;9.63;5.13;;;;;;;-146.27;83.38;83002.94;5029558;28;20512;-72
2023/06/06 04:32:00;;;;;;;12.13;5.55;;;;;;;-146.27;83.57;82990.88;5029673;28;20044;-71
2023/06/06 04:34:29;;;;;;;11.07;5.13;;;;;;;-146.27;83.53;83002.94;5030306;28;20056;-71
2023/06/06 04:37:03;;;;;;;16.10;6.18;;;;;;;-146.27;83.29;83000.94;5031029;28;20601;-70
2023/06/06 04:39:31;;;;;;;11.45;5.50;;;;;;;-146.27;83.14;82974.81;5030739;28;20440;-71
2023/06/06 04:42:05;;;;;;;10.52;5.38;;;;;;;-146.27;83.80;82968.78;5032432;28;20056;-70
2023/06/06 04:44:31;;;;;;;11.50;5.22;;;;;;;-146.27;83.52;82986.88;5012197;28;20125;-71
2023/06/06 04:47:00;;;;;;;11.50;5.22;;;;;;;-146.27;83.55;82968.78;5012495;28;20417;-70
2023/06/06 04:49:26;;;;;;;12.32;5.47;;;;;;;-146.27;83.50;82936.66;5030633;28;20025;-70
2023/06/06 04:51:53;;;;;;;14.32;4.90;;;;;;;-146.27;83.38;82946.69;5031333;28;20393;-70
2023/06/06 04:54:18;;;;;;;14.40;6.07;;;;;;;-146.27;82.82;82944.69;5030043;28;20028;-70
2023/06/06 04:56:45;;;;;;;17.63;5.63;;;;;;;-146.27;82.82;82926.59;5030440;28;20033;-70
2023/06/06 04:59:10;;;;;;;11.30;5.03;;;;;;;-146.27;83.50;82954.72;5029417;28;20035;-70
2023/06/06 05:01:36;;;;;;;16.20;5.22;;;;;;;-146.27;83.17;82910.53;5028064;28;20397;-70
2023/06/06 05:04:03;;;;;;;13.52;5.57;;;;;;;-146.27;83.76;82940.66;5029983;28;20022;-70
2023/06/06 05:06:33;;;;;;;13.68;5.88;;;;;;;-146.27;83.18;82970.81;5030284;28;20355;-71
2023/06/06 05:09:00;;;;;;;20.38;5.97;;;;;;;-146.27;82.97;82956.75;5029309;28;20482;-71
2023/06/06 05:11:26;;;;;;;15.35;5.97;;;;;;;-146.27;83.83;82934.63;5029383;28;20022;-71
2023/06/06 05:13:52;;;;;;;11.88;5.22;;;;;;;-146.27;83.06;82884.41;5018416;28;20030;-71
2023/06/06 05:16:18;;;;;;;13.20;5.50;;;;;;;-146.27;83.03;82896.47;5021932;28;20039;-71
2023/06/06 05:18:43;;;;;;;12.85;5.18;;;;;;;-146.27;83.41;82908.50;5029051;28;20032;-70
2023/06/06 05:21:09;;;;;;;10.57;5.53;;;;;;;-146.27;83.54;82926.59;5029126;28;20052;-71
2023/06/06 05:23:35;;;;;;;11.00;5.75;;;;;;;-146.27;83.39;82908.50;5030359;28;20377;-70
2023/06/06 05:26:00;;;;;;;12.98;5.30;;;;;;;-146.27;83.35;82854.28;5030644;28;20029;-70
2023/06/06 05:28:27;;;;;;;11.18;5.35;;;;;;;-146.27;83.46;82862.31;5030103;28;20672;-70
2023/06/06 05:30:52;;;;;;;14.07;6.18;;;;;;;-146.27;83.39;82886.41;5027088;28;20057;-71
2023/06/06 05:33:21;;;;;;;13.52;6.13;;;;;;;-146.27;83.05;82886.41;5029057;28;20029;-74
2023/06/06 05:35:49;;;;;;;9.07;5.10;;;;;;;-146.27;83.51;82862.31;5020337;28;20550;-71
2023/06/06 05:38:18;;;;;;;14.55;5.75;;;;;;;-146.27;83.31;82854.28;5027661;28;20115;-72
2023/06/06 05:40:43;;;;;;;13.93;5.30;;;;;;;-146.27;83.29;82866.31;5030317;28;20497;-70
2023/06/06 05:43:09;;;;;;;16.02;4.93;;;;;;;-146.27;83.23;82810.06;5026615;28;20105;-72
2023/06/06 05:45:35;;;;;;;11.60;5.00;;;;;;;-146.27;83.71;82794.00;5023740;28;20030;-72
2023/06/06 05:48:00;;;;;;;12.18;5.47;;;;;;;-146.27;83.45;82794.00;5029336;28;20393;-70
2023/06/06 05:50:26;;;;;;;13.40;5.35;;;;;;;-146.27;83.36;82789.97;5029032;28;20120;-72
2023/06/06 05:52:51;;;;;;;11.13;5.18;;;;;;;-146.27;82.90;82713.66;5028991;28;20441;-72
2023/06/06 05:55:27;;;;;;;17.23;6.13;;;;;;;-146.27;82.55;82763.88;5028715;28;20033;-72
2023/06/06 05:57:53;;;;;;;12.18;4.97;;;;;;;-146.27;83.01;82733.72;5028429;28;20504;-73
2023/06/06 06:00:19;;;;;;;13.35;5.32;;;;;;;-146.27;82.54;82713.66;5017526;28;20128;-72
2023/06/06 06:02:44;;;;;;;15.73;5.55;;;;;;;-146.27;82.46;82717.66;5025833;28;20029;-72
2023/06/06 06:05:09;;;;;;;12.48;5.07;;;;;;;-146.27;82.32;82705.59;5028144;28;20090;-72
2023/06/06 06:07:35;;;;;;;12.82;5.13;;;;;;;-146.27;82.27;82721.69;5028144;28;20041;-72
2023/06/06 06:10:02;;;;;;;11.75;5.80;;;;;;;-146.27;81.24;82693.56;5020168;28;20045;-72
2023/06/06 06:12:27;;;;;;;13.10;4.68;;;;;;;-146.27;81.09;82633.28;5029098;28;20033;-71
2023/06/06 06:14:53;;;;;;;12.52;5.22;;;;;;;-146.27;80.34;82653.38;5026318;28;20029;-72
2023/06/06 06:17:20;;;;;;;11.68;4.65;;;;;;;-146.27;79.63;82619.22;5027063;28;20136;-71
2023/06/06 06:19:46;;;;;;;18.10;4.85;;;;;;;-146.27;79.50;82605.16;5027840;28;20030;-72
2023/06/06 06:22:11;;;;;;;11.02;4.97;;;;;;;-146.27;79.72;82605.16;5012381;28;20125;-72
2023/06/06 06:24:37;;;;;;;11.18;4.97;;;;;;;-146.27;79.28;82615.22;5026176;28;20048;-70
2023/06/06 06:27:03;;;;;;;12.30;5.20;;;;;;;-146.27;79.44;82571.00;5028641;28;20396;-70
2023/06/06 06:29:28;;;;;;;13.00;5.05;;;;;;;-146.27;78.27;82603.16;5033797;28;20022;-70
2023/06/06 06:31:53;;;;;;;10.88;5.65;;;;;;;-146.27;79.21;82589.09;5045450;28;20056;-70
2023/06/06 06:34:19;;;;;;;13.15;5.20;;;;;;;-146.27;79.44;82605.16;5041906;28;20052;-71
2023/06/06 06:36:44;;;;;;;11.55;4.57;;;;;;;-146.27;78.92;82581.06;5031593;28;20060;-71
2023/06/06 06:39:10;;;;;;;13.02;5.40;;;;;;;-146.27;78.36;82587.09;5027320;28;20037;-71
2023/06/06 06:41:35;;;;;;;12.32;5.20;;;;;;;-146.27;78.45;82575.03;5033310;28;20025;-71
2023/06/06 06:44:01;;;;;;;10.52;5.05;;;;;;;-146.27;78.15;82605.16;5032960;28;20493;-72
2023/06/06 06:46:26;;;;;;;10.30;4.85;;;;;;;-146.27;79.03;82585.06;5029447;28;20042;-71
2023/06/06 06:48:51;;;;;;;12.45;5.82;;;;;;;-146.27;78.58;82597.13;5031451;28;20436;-71
2023/06/06 06:51:19;;;;;;;13.80;5.40;;;;;;;-146.27;78.10;82552.94;5024505;28;20788;-71
2023/06/06 06:53:44;;;;;;;15.65;5.15;;;;;;;-146.27;78.43;82569.00;5028169;28;20364;-72
2023/06/06 06:56:10;;;;;;;16.55;5.07;;;;;;;-146.27;78.08;82571.00;5031089;28;20036;-70
2023/06/06 06:58:37;;;;;;;14.50;5.03;;;;;;;-146.27;77.70;82472.56;5032935;28;20028;-72
2023/06/06 07:01:05;;;;;;;14.32;4.68;;;;;;;-146.27;77.75;82516.78;5032966;28;20056;-72
2023/06/06 07:03:34;;;;;;;17.25;5.00;;;;;;;-146.27;77.64;82464.53;5032079;28;20036;-72
2023/06/06 07:05:59;;;;;;;10.30;4.60;;;;;;;-146.27;77.89;82456.50;5032963;28;20052;-72
2023/06/06 07:08:25;;;;;;;13.32;5.13;;;;;;;-146.27;76.99;82450.47;5032955;28;20018;-72
2023/06/06 07:10:50;;;;;;;13.65;5.72;;;;;;;-146.27;75.58;82438.44;5031269;28;20515;-72
2023/06/06 07:13:18;;;;;;;14.80;5.13;;;;;;;-146.27;75.83;82416.31;5032170;28;20112;-72
2023/06/06 07:15:43;;;;;;;12.60;5.93;;;;;;;-146.27;74.67;82436.41;5028712;28;20060;-72
2023/06/06 07:18:09;;;;;;;11.73;4.55;;;;;;;-146.27;74.93;82412.31;5029089;28;20110;-72
2023/06/06 07:20:34;;;;;;;11.75;5.55;;;;;;;-146.27;75.01;82380.16;5032563;28;20025;-73
2023/06/06 07:23:00;;;;;;;9.57;4.45;;;;;;;-146.27;75.25;82418.34;5029953;28;20033;-72
2023/06/06 07:25:25;;;;;;;15.18;4.82;;;;;;;-146.27;74.38;82412.31;5029781;28;20474;-72
2023/06/06 07:27:51;;;;;;;9.90;4.43;;;;;;;-146.27;74.75;82376.16;5028434;28;20051;-70
2023/06/06 07:30:16;;;;;;;12.95;5.18;;;;;;;-146.27;74.08;82337.97;5028381;28;20040;-71
2023/06/06 07:32:43;;;;;;;16.90;4.78;;;;;;;-146.27;72.88;82346.03;5030428;28;20026;-71
2023/06/06 07:35:10;;;;;;;12.48;5.03;;;;;;;-146.27;72.79;82307.84;5030903;28;20060;-71
2023/06/06 07:37:39;;;;;;;13.57;5.32;;;;;;;-146.27;74.14;82293.78;5031847;28;20063;-71
2023/06/06 07:40:07;;;;;;;17.23;5.88;;;;;;;-146.27;73.46;82271.69;5030973;28;20029;-71
2023/06/06 07:42:33;;;;;;;13.60;5.28;;;;;;;-146.27;73.53;82259.66;5030053;28;20025;-71
2023/06/06 07:44:58;;;;;;;12.70;5.47;;;;;;;-146.27;73.63;82259.66;5030812;28;20072;-70
2023/06/06 07:47:24;;;;;;;13.32;5.18;;;;;;;-146.27;71.63;82179.28;5025595;28;20033;-71
2023/06/06 07:49:52;;;;;;;10.70;4.90;;;;;;;-146.27;71.71;82187.31;5012585;28;20033;-71
2023/06/06 07:52:18;;;;;;;14.52;4.97;;;;;;;-146.27;70.70;82177.28;5015059;28;20041;-70
2023/06/06 07:54:43;;;;;;;12.95;5.05;;;;;;;-146.27;71.34;82149.16;5029824;28;20041;-71
2023/06/06 07:57:09;;;;;;;9.70;5.57;;;;;;;-146.27;71.17;82135.09;5027557;28;20029;-71
2023/06/06 07:59:35;;;;;;;12.43;5.20;;;;;;;-146.27;70.70;82151.16;5030553;28;20032;-71
2023/06/06 08:02:00;;;;;;;11.25;5.32;;;;;;;-146.27;69.14;82145.16;5027254;28;20037;-71
2023/06/06 08:04:26;;;;;;;15.38;5.15;;;;;;;-146.27;69.64;82125.06;5028221;28;20029;-71
2023/06/06 08:06:52;;;;;;;16.27;5.22;;;;;;;-146.27;69.12;82094.94;5029761;28;20553;-77
2023/06/06 08:09:18;;;;;;;9.80;4.75;;;;;;;-146.27;69.50;82054.75;5029115;28;20125;-71
2023/06/06 08:11:43;;;;;;;14.35;5.93;;;;;;;-146.27;69.47;82078.84;5031325;28;20029;-71
2023/06/06 08:14:08;;;;;;;14.93;5.50;;;;;;;-146.27;70.32;82050.75;5031902;28;20028;-71
2023/06/06 08:16:34;;;;;;;9.55;5.32;;;;;;;-146.27;68.03;82016.59;5027665;28;20122;-71
2023/06/06 08:18:59;;;;;;;14.77;4.93;;;;;;;-146.27;68.16;82115.00;5028567;28;20025;-71
2023/06/06 08:21:25;;;;;;;12.60;4.97;;;;;;;-146.27;68.63;82020.59;5030844;28;20025;-71
2023/06/06 08:23:50;;;;;;;10.15;4.53;;;;;;;-146.27;68.80;81994.50;5031715;28;20592;-71
2023/06/06 08:26:16;;;;;;;13.82;5.18;;;;;;;-146.27;67.81;81908.13;5030026;28;20079;-73
2023/06/06 08:28:41;;;;;;;15.52;5.57;;;;;;;-146.27;68.32;81906.13;5030221;28;20515;-71
2023/06/06 08:31:08;;;;;;;16.83;5.55;;;;;;;-146.27;68.36;81869.97;5030188;28;20025;-71
2023/06/06 08:33:33;;;;;;;13.05;5.18;;;;;;;-146.27;67.54;81918.16;5030134;28;20030;-71
2023/06/06 08:35:58;;;;;;;18.45;5.80;;;;;;;-146.27;67.02;81863.94;5030531;28;20099;-71
2023/06/06 08:38:24;;;;;;;18.23;5.80;;;;;;;-146.27;67.21;81815.72;5028569;28;20037;-72
2023/06/06 08:40:52;;;;;;;11.85;5.75;;;;;;;-146.27;66.60;81771.53;5028740;28;20437;-70
2023/06/06 08:43:19;;;;;;;11.18;5.35;;;;;;;-146.27;65.31;81757.50;5028234;28;20026;-71
2023/06/06 08:45:51;;;;;;;9.13;5.13;;;;;;;-146.27;64.54;81731.38;5026300;28;20025;-71
2023/06/06 08:48:18;;;;;;;16.00;5.35;;;;;;;-146.27;64.53;81721.34;5029026;28;20496;-71
2023/06/06 08:50:44;;;;;;;10.05;5.45;;;;;;;-146.27;65.48;81811.72;5028118;28;20105;-71
2023/06/06 08:53:14;;;;;;;14.40;5.30;;;;;;;-146.27;66.17;81729.38;5029094;28;20030;-70
2023/06/06 08:55:40;;;;;;;12.55;5.60;;;;;;;-146.27;65.32;81747.44;5029426;28;20131;-72
2023/06/06 08:58:05;;;;;;;10.77;5.20;;;;;;;-146.27;65.60;81693.22;5029935;28;20448;-73
2023/06/06 09:00:30;;;;;;;12.98;6.20;;;;;;;-146.27;64.34;81679.16;5026868;28;20041;-71
2023/06/06 09:02:59;;;;;;;11.23;5.55;;;;;;;-146.27;63.93;81592.78;5030007;28;20454;-72
2023/06/06 09:05:25;;;;;;;14.68;6.32;;;;;;;-146.27;64.11;81622.91;5030636;28;20039;-72
2023/06/06 09:07:55;;;;;;;11.25;5.53;;;;;;;-146.27;63.68;81570.69;5029093;28;20439;-71
2023/06/06 09:10:21;;;;;;;14.93;6.03;;;;;;;-146.27;64.95;81590.78;5030475;28;20045;-71
2023/06/06 09:12:48;;;;;;;13.82;6.15;;;;;;;-146.27;63.54;81564.69;5028446;28;20100;-71
2023/06/06 09:15:15;;;;;;;17.35;6.10;;;;;;;-146.27;62.79;81508.44;5027397;28;20025;-71
2023/06/06 09:17:45;;;;;;;12.75;5.53;;;;;;;-146.27;62.45;81434.13;5030046;28;20116;-71
2023/06/06 09:20:15;;;;;;;13.57;5.93;;;;;;;-146.27;62.18;81476.31;5029229;28;20311;-70
2023/06/06 09:22:47;;;;;;;10.27;5.97;;;;;;;-146.27;61.79;81484.34;5027067;28;20056;-71
2023/06/06 09:25:26;;;;;;;13.80;5.47;;;;;;;-146.27;62.34;81420.06;5010546;28;20029;-70
2023/06/06 09:27:59;;;;;;;12.15;5.55;;;;;;;-146.27;60.39;81428.09;5024778;28;20033;-71
2023/06/06 09:30:26;;;;;;;;;;;;;;;-146.27;60.28;81387.94;5019979;28;20029;-71
2023/06/06 09:32:52;;;;;;;12.77;5.38;;;;;;;-146.27;60.40;81355.81;5020695;28;19932;-71
2023/06/06 09:35:18;;;;;;;15.48;6.28;;;;;;;-146.27;62.23;81343.75;5027906;28;20034;-73
2023/06/06 09:37:48;;;;;;;11.65;5.53;;;;;;;-146.27;61.07;81331.72;5026565;28;20033;-74
2023/06/06 09:40:18;;;;;;;12.82;5.75;;;;;;;-146.27;60.26;81253.38;5029952;28;20504;-73
2023/06/06 09:42:45;;;;;;;10.00;4.80;;;;;;;-146.27;62.12;81201.19;5027733;28;20432;-74
2023/06/06 09:45:15;;;;;;;14.25;6.07;;;;;;;-146.27;59.47;81185.13;5027227;28;20041;-73
2023/06/06 09:47:44;;;;;;;9.73;5.13;;;;;;;-146.27;58.27;81195.16;5029857;28;20501;-73
2023/06/06 09:50:11;;;;;;;21.05;7.32;;;;;;;-146.27;59.24;81207.19;5020662;28;20029;-72
2023/06/06 09:52:37;;;;;;;14.30;6.53;;;;;;;-146.27;59.33;81159.00;5029384;28;20043;-71
2023/06/06 09:55:13;;;;;;;15.75;6.43;;;;;;;-146.27;58.97;81106.78;5029929;28;20025;-72
2023/06/06 09:57:39;;;;;;;9.35;5.55;;;;;;;-146.27;58.02;81048.56;5033987;28;20557;-72
2023/06/06 10:00:10;;;;;;;14.75;5.70;;;;;;;-146.27;59.24;81046.53;5033912;28;20021;-72
2023/06/06 10:02:40;;;;;;;13.27;6.10;;;;;;;-146.27;58.31;81078.69;5030829;28;20033;-72
2023/06/06 10:05:07;;;;;;;11.55;5.25;;;;;;;-146.27;58.60;80958.19;5033489;28;20060;-72
2023/06/06 10:07:32;;;;;;;13.00;5.57;;;;;;;-146.27;56.93;80946.13;5029487;28;20873;-72
2023/06/06 10:09:59;;;;;;;12.80;4.95;;;;;;;-146.27;54.90;80901.97;5031228;28;20037;-71
2023/06/06 10:12:28;;;;;;;14.27;6.03;;;;;;;-146.27;55.14;80897.94;5032878;28;20037;-72
2023/06/06 10:14:55;;;;;;;12.52;5.60;;;;;;;-146.27;56.09;80901.97;5030699;28;20124;-72
2023/06/06 10:17:25;;;;;;;15.15;5.40;;;;;;;-146.27;54.37;80821.63;5028390;28;20053;-72
2023/06/06 10:19:56;;;;;;;10.95;5.22;;;;;;;-146.27;55.03;80797.53;5029351;28;20037;-72
2023/06/06 10:22:22;;;;;;;14.18;5.68;;;;;;;-146.27;56.33;80733.28;5032903;28;20025;-72
2023/06/06 10:24:48;;;;;;;11.10;6.15;;;;;;;-146.27;55.34;80727.28;5033290;28;20116;-72
2023/06/06 10:27:24;;;;;;;13.35;5.38;;;;;;;-146.27;53.39;80745.34;5031661;28;20386;-72
2023/06/06 10:30:05;;;;;;;12.98;5.45;;;;;;;-146.27;53.70;80685.09;5026719;28;20580;-71
2023/06/06 10:33:17;;;;;;;15.95;5.80;;;;;;;-146.27;51.29;80650.97;5016436;28;20074;-71
2023/06/06 10:35:44;;;;;;;11.40;5.15;;;;;;;-146.27;51.20;80640.94;5032620;28;20056;-71
2023/06/06 10:38:10;;;;;;;11.55;4.72;;;;;;;-146.27;51.15;80616.84;5025590;28;20039;-71
2023/06/06 10:40:47;;;;;;;11.48;4.55;;;;;;;-146.27;50.11;80524.47;5031155;28;20025;-71
2023/06/06 10:43:15;;;;;;;14.55;5.28;;;;;;;-146.27;49.86;80592.72;5031091;28;20136;-72
2023/06/06 10:45:42;;;;;;;8.45;4.50;;;;;;;-146.27;48.30;80610.81;5026651;28;20397;-71
2023/06/06 10:48:08;;;;;;;10.32;4.38;;;;;;;-146.27;51.23;80512.41;5032177;28;20017;-71
2023/06/06 10:50:33;;;;;;;13.73;5.25;;;;;;;-146.27;49.89;80484.31;5028234;28;20143;-71
2023/06/06 10:53:06;;;;;;;13.43;5.32;;;;;;;-146.27;48.03;80450.19;5031982;28;20061;-71
2023/06/06 10:55:32;;;;;;;7.80;4.82;;;;;;;-146.27;48.84;80492.34;5031392;28;20033;-71
2023/06/06 10:58:10;;;;;;;8.13;4.75;;;;;;;-146.27;48.84;80440.13;5032982;28;20230;-71
2023/06/06 11:00:40;;;;;;;16.10;6.00;;;;;;;-146.27;46.41;80432.09;5032851;28;20057;-71
2023/06/06 11:03:06;;;;;;;10.90;4.85;;;;;;;-146.27;48.57;80371.88;5026810;28;20489;-71
2023/06/06 11:05:32;;;;;;;13.77;4.60;;;;;;;-146.27;47.42;80379.91;5029623;28;20033;-71
2023/06/06 11:07:58;;;;;;;12.25;5.28;;;;;;;-146.27;47.78;80321.69;5022959;28;20060;-72
2023/06/06 11:10:24;;;;;;;9.85;4.75;;;;;;;-146.27;47.04;80203.22;5025196;28;20065;-73